Robbinston, Maine
Current Conditions -  °F | °C
As of 11:00 AM on Thursday 23 Oct 2014 (Local Time) from CYFC Reporting Station
Light Rain Light Rain  
Wind Chill: 50°   Ceiling: 1100
Heat Index: 50°   Visibility: 9mi
Dew Point: 46°   Wind: 18mph
Humidity: 87%   Direction: 40°NE
Pressure: 30.08"   Gusts: 25mph
Location:  45.08°N, 67.11°W
Report Text: CYFC 231500Z AUTO 04016G22KT 9SM -RA OVC011 10/08 A3008 RMK SLP188
Loading
Personal Weather Stations






























Interactive Weather Map
Tropical Storm Tracking
New forecast layout! Learn more

10-Day Weather Forecast

Advertisements
Track Severe Weather on mobile